Time;durP1;ratioP1;P1;durP2;ratioP2;P2;SDS_P1;SDS_P2;PMS_P1;PMS_P2;Temp;Humidity;BMP_temperature;BMP_pressure;BME280_temperature;BME280_humidity;BME280_pressure;Samples;Min_cycle;Max_cycle;Signal;HPM_P1;HPM_P2
2022/04/29 00:00:51;;;;;;;91.03;58.97;;;11.20;99.90;;;;;;5018157;28;20028;-52
2022/04/29 00:03:17;;;;;;;89.10;58.67;;;11.20;99.90;;;;;;5018022;28;20087;-52
2022/04/29 00:05:46;;;;;;;89.78;58.45;;;11.20;99.90;;;;;;5018344;28;20018;-52
2022/04/29 00:08:13;;;;;;;93.00;59.17;;;11.20;99.90;;;;;;5018020;28;20032;-52
2022/04/29 00:10:40;;;;;;;88.05;58.03;;;11.10;99.90;;;;;;5018071;28;20028;-52
2022/04/29 00:13:09;;;;;;;87.47;56.53;;;11.10;99.90;;;;;;5018052;28;20085;-52
2022/04/29 00:15:35;;;;;;;88.20;58.50;;;11.00;99.90;;;;;;5018057;28;20034;-52
2022/04/29 00:18:01;;;;;;;84.43;54.78;;;10.90;99.90;;;;;;5018008;28;20483;-53
2022/04/29 00:20:27;;;;;;;87.28;56.47;;;10.80;99.90;;;;;;5017952;28;20106;-52
2022/04/29 00:22:53;;;;;;;86.93;56.13;;;10.70;99.90;;;;;;5017672;28;20026;-52
2022/04/29 00:25:19;;;;;;;83.13;54.90;;;10.70;99.90;;;;;;5017900;28;20052;-52
2022/04/29 00:27:45;;;;;;;85.80;55.85;;;10.60;99.90;;;;;;5017833;28;20038;-52
2022/04/29 00:30:12;;;;;;;88.95;57.28;;;10.60;99.90;;;;;;5017679;28;20140;-52
2022/04/29 00:32:40;;;;;;;85.95;57.33;;;10.60;99.90;;;;;;5016376;28;20113;-52
2022/04/29 00:35:10;;;;;;;84.50;54.03;;;10.60;99.90;;;;;;5016487;28;20088;-52
2022/04/29 00:37:48;;;;;;;84.78;54.85;;;10.60;99.90;;;;;;5017347;28;20064;-52
2022/04/29 00:40:27;;;;;;;86.50;54.17;;;10.50;99.90;;;;;;5016282;28;20030;-52
2022/04/29 00:42:53;;;;;;;82.07;53.50;;;10.40;99.90;;;;;;5017543;28;20030;-52
2022/04/29 00:45:21;;;;;;;85.68;54.65;;;10.30;99.90;;;;;;5017401;28;20030;-52
2022/04/29 00:47:48;;;;;;;82.40;50.67;;;10.30;99.90;;;;;;5016222;28;20061;-52
2022/04/29 00:50:17;;;;;;;80.50;50.95;;;10.20;99.90;;;;;;5017576;28;20026;-52
2022/04/29 00:52:50;;;;;;;84.63;54.60;;;10.20;99.90;;;;;;5015788;28;20061;-52
2022/04/29 00:55:16;;;;;;;82.25;51.33;;;10.10;99.90;;;;;;5017322;28;20388;-52
2022/04/29 00:58:01;;;;;;;81.97;50.15;;;10.00;99.90;;;;;;5016015;28;20037;-52
2022/04/29 01:00:27;;;;;;;72.97;46.45;;;10.00;99.90;;;;;;5017064;28;20049;-52
2022/04/29 01:02:54;;;;;;;70.03;46.22;;;9.90;99.90;;;;;;5016477;28;20107;-52
2022/04/29 01:05:23;;;;;;;87.28;53.45;;;9.90;99.90;;;;;;5017080;28;20058;-52
2022/04/29 01:07:50;;;;;;;80.28;49.95;;;9.80;99.90;;;;;;5017146;28;20030;-52
2022/04/29 01:10:20;;;;;;;71.45;45.40;;;9.80;99.90;;;;;;5017112;28;20030;-52
2022/04/29 01:12:54;;;;;;;70.05;44.55;;;9.70;99.90;;;;;;5015563;28;20460;-52
2022/04/29 01:15:20;;;;;;;70.53;44.85;;;9.70;99.90;;;;;;5016942;28;20630;-52
2022/04/29 01:17:48;;;;;;;77.97;49.55;;;9.70;99.90;;;;;;5016859;28;20026;-52
2022/04/29 01:20:17;;;;;;;74.03;46.00;;;9.60;99.90;;;;;;5015468;28;20057;-52
2022/04/29 01:22:44;;;;;;;87.75;50.05;;;9.60;99.90;;;;;;5015662;28;20022;-52
2022/04/29 01:25:13;;;;;;;84.20;50.60;;;9.60;99.90;;;;;;5015512;28;20033;-52
2022/04/29 01:27:46;;;;;;;79.15;50.58;;;9.60;99.90;;;;;;5015249;28;20036;-52
2022/04/29 01:30:15;;;;;;;71.60;45.92;;;9.60;99.90;;;;;;5015306;28;20054;-52
2022/04/29 01:32:42;;;;;;;68.40;43.10;;;9.50;99.90;;;;;;5015327;28;20030;-52
2022/04/29 01:35:10;;;;;;;69.95;43.28;;;9.50;99.90;;;;;;5015344;28;20030;-52
2022/04/29 01:37:36;;;;;;;74.63;44.30;;;9.40;99.90;;;;;;5016523;28;20037;-52
2022/04/29 01:40:04;;;;;;;75.43;47.85;;;9.40;99.90;;;;;;5015190;28;20052;-52
2022/04/29 01:42:30;;;;;;;136.70;69.78;;;9.40;99.90;;;;;;5015191;28;20053;-52
2022/04/29 01:44:56;;;;;;;113.78;62.03;;;9.40;99.90;;;;;;5015216;28;20072;-52
2022/04/29 01:47:23;;;;;;;120.63;61.90;;;9.40;99.90;;;;;;5015084;28;20038;-52
2022/04/29 01:50:08;;;;;;;96.40;54.88;;;9.40;99.90;;;;;;5015072;28;20026;-52
2022/04/29 01:52:35;;;;;;;96.13;53.35;;;9.50;99.90;;;;;;5014870;28;20037;-52
2022/04/29 01:55:01;;;;;;;96.90;52.85;;;9.60;99.90;;;;;;5014860;28;20079;-52
2022/04/29 01:57:30;;;;;;;106.65;55.78;;;9.60;99.90;;;;;;5014807;28;20061;-52
2022/04/29 01:59:56;;;;;;;114.03;63.63;;;9.70;99.90;;;;;;5014827;28;20033;-52
2022/04/29 02:02:41;;;;;;;118.78;59.90;;;9.70;99.90;;;;;;5016051;28;20088;-52
2022/04/29 02:05:07;;;;;;;109.70;58.60;;;9.90;99.90;;;;;;5014652;28;20037;-52
2022/04/29 02:07:34;;;;;;;113.20;58.28;;;9.90;99.90;;;;;;5014826;28;20033;-52
2022/04/29 02:10:00;;;;;;;115.47;61.05;;;9.90;99.90;;;;;;5014813;28;20056;-52
2022/04/29 02:12:29;;;;;;;108.53;58.40;;;9.90;99.90;;;;;;5014697;28;20256;-52
2022/04/29 02:14:54;;;;;;;114.80;57.08;;;10.00;99.90;;;;;;5015970;28;20369;-52
2022/04/29 02:17:24;;;;;;;100.55;54.55;;;10.00;99.90;;;;;;5014214;28;20029;-52
2022/04/29 02:19:51;;;;;;;100.22;54.65;;;10.00;99.90;;;;;;5014430;28;20034;-52
2022/04/29 02:22:17;;;;;;;110.10;53.83;;;10.00;99.90;;;;;;5015728;28;20014;-52
2022/04/29 02:24:44;;;;;;;96.68;52.53;;;9.90;99.90;;;;;;5014383;28;20496;-52
2022/04/29 02:27:09;;;;;;;91.50;50.03;;;10.00;99.90;;;;;;5014364;28;20033;-52
2022/04/29 02:29:39;;;;;;;92.10;51.38;;;10.00;99.90;;;;;;5014149;28;20140;-52
2022/04/29 02:32:12;;;;;;;105.65;51.83;;;10.00;99.90;;;;;;5014100;28;20570;-52
2022/04/29 02:34:40;;;;;;;86.28;49.17;;;9.90;99.90;;;;;;5015500;28;20034;-52
2022/04/29 02:37:07;;;;;;;96.07;49.72;;;9.90;99.90;;;;;;5014225;28;20030;-52
2022/04/29 02:39:33;;;;;;;92.28;47.50;;;9.90;99.90;;;;;;5014083;28;20029;-52
2022/04/29 02:41:59;;;;;;;86.05;47.28;;;10.00;99.90;;;;;;5015537;28;20028;-52
2022/04/29 02:44:25;;;;;;;90.70;49.45;;;9.90;99.90;;;;;;5013967;28;20045;-52
2022/04/29 02:47:10;;;;;;;82.22;46.13;;;9.90;99.90;;;;;;5013823;28;20384;-52
2022/04/29 02:49:41;;;;;;;90.03;47.60;;;10.00;99.90;;;;;;5014054;28;20038;-52
2022/04/29 02:52:16;;;;;;;89.25;47.30;;;10.00;99.90;;;;;;5014985;28;20033;-52
2022/04/29 02:54:43;;;;;;;82.68;43.90;;;10.00;99.90;;;;;;5014005;28;20022;-52
2022/04/29 02:57:29;;;;;;;74.60;41.42;;;10.00;99.90;;;;;;5013781;28;20025;-52
2022/04/29 02:59:55;;;;;;;78.50;43.65;;;9.90;99.90;;;;;;5013712;28;20056;-52
2022/04/29 03:02:22;;;;;;;71.78;43.28;;;9.90;99.90;;;;;;5013769;28;20026;-52
2022/04/29 03:04:48;;;;;;;74.43;44.33;;;9.90;99.90;;;;;;5015029;28;20026;-52
2022/04/29 03:07:13;;;;;;;79.22;45.17;;;9.90;99.90;;;;;;5013623;28;20109;-52
2022/04/29 03:09:48;;;;;;;72.40;42.60;;;9.90;99.90;;;;;;5013503;28;20495;-52
2022/04/29 03:12:14;;;;;;;79.25;42.92;;;9.90;99.90;;;;;;5013697;28;20089;-52
2022/04/29 03:14:41;;;;;;;75.80;43.75;;;9.80;99.90;;;;;;5013534;28;20483;-52
2022/04/29 03:18:17;;;;;;;76.57;43.88;;;9.90;99.90;;;;;;5013336;28;20487;-52
2022/04/29 03:19:58;;;;;;;76.38;42.10;;;9.80;99.90;;;;;;5013346;28;20034;-52
2022/04/29 03:22:26;;;;;;;67.35;40.72;;;9.80;99.90;;;;;;5013409;28;20041;-52
2022/04/29 03:24:52;;;;;;;71.78;41.03;;;9.80;99.90;;;;;;5013013;28;20387;-52
2022/04/29 03:27:18;;;;;;;68.25;42.03;;;9.90;99.90;;;;;;5013444;28;20120;-52
2022/04/29 03:29:44;;;;;;;71.38;40.45;;;9.80;99.90;;;;;;5013120;28;20467;-52
2022/04/29 03:32:10;;;;;;;70.00;41.35;;;9.80;99.90;;;;;;5013412;28;20033;-52
2022/04/29 03:34:58;;;;;;;67.82;39.63;;;9.80;99.90;;;;;;5013267;28;20506;-52
2022/04/29 03:37:24;;;;;;;65.38;38.42;;;9.70;99.90;;;;;;5014538;28;20030;-52
2022/04/29 03:39:50;;;;;;;67.95;39.60;;;9.70;99.90;;;;;;5013279;28;20040;-52
2022/04/29 03:42:16;;;;;;;71.45;41.90;;;9.70;99.90;;;;;;5013258;28;20481;-52
2022/04/29 03:44:42;;;;;;;73.68;41.03;;;9.70;99.90;;;;;;5013301;28;20041;-52
2022/04/29 03:47:08;;;;;;;65.60;39.08;;;9.70;99.90;;;;;;5013141;28;20034;-52
2022/04/29 03:49:53;;;;;;;75.68;42.38;;;9.70;99.90;;;;;;5013115;28;20042;-52
2022/04/29 03:52:22;;;;;;;67.55;40.67;;;9.70;99.90;;;;;;5013121;28;20428;-52
2022/04/29 03:54:50;;;;;;;63.00;39.08;;;9.60;99.90;;;;;;5013201;28;20391;-52
2022/04/29 03:57:17;;;;;;;75.90;42.20;;;9.60;99.90;;;;;;5014201;28;20030;-52
2022/04/29 03:59:43;;;;;;;81.57;43.13;;;9.60;99.90;;;;;;5013151;28;20490;-52
2022/04/29 04:02:09;;;;;;;85.90;46.00;;;9.60;99.90;;;;;;5013093;28;20076;-52
2022/04/29 04:04:35;;;;;;;82.88;46.45;;;9.60;99.90;;;;;;5012878;28;20121;-52
2022/04/29 04:07:02;;;;;;;85.70;46.35;;;9.50;99.90;;;;;;5013157;28;20014;-52
2022/04/29 04:09:49;;;;;;;80.50;46.05;;;9.50;99.90;;;;;;5012944;28;20022;-52
2022/04/29 04:12:16;;;;;;;79.32;44.70;;;9.50;99.90;;;;;;5013025;28;20038;-52
2022/04/29 04:15:01;;;;;;;65.25;38.85;;;9.50;99.90;;;;;;5014639;28;20384;-52
2022/04/29 04:17:29;;;;;;;67.63;38.85;;;9.50;99.90;;;;;;5012815;28;20547;-52
2022/04/29 04:19:54;;;;;;;64.93;38.42;;;9.50;99.90;;;;;;5012802;28;20064;-52
2022/04/29 04:22:21;;;;;;;79.50;41.78;;;9.50;99.90;;;;;;5012925;28;20037;-52
2022/04/29 04:24:47;;;;;;;68.65;38.92;;;9.50;99.90;;;;;;5012828;28;20068;-52
2022/04/29 04:27:13;;;;;;;66.80;39.97;;;9.50;99.90;;;;;;5012803;28;20041;-52
2022/04/29 04:29:40;;;;;;;67.63;39.20;;;9.50;99.90;;;;;;5012619;28;20057;-53
2022/04/29 04:32:07;;;;;;;66.38;38.40;;;9.50;99.90;;;;;;5012707;28;20067;-52
2022/04/29 04:34:51;;;;;;;71.38;39.95;;;9.50;99.90;;;;;;5014116;28;20064;-52
2022/04/29 04:37:19;;;;;;;67.70;38.95;;;9.40;99.90;;;;;;5014693;28;20084;-52
2022/04/29 04:39:48;;;;;;;67.80;39.75;;;9.40;99.90;;;;;;5016400;28;20113;-52
2022/04/29 04:42:21;;;;;;;71.35;40.20;;;9.50;99.90;;;;;;5016380;28;20030;-52
2022/04/29 04:44:50;;;;;;;71.78;41.50;;;9.50;99.90;;;;;;5016176;28;20384;-52
2022/04/29 04:47:20;;;;;;;79.28;42.03;;;9.40;99.90;;;;;;5016179;28;20025;-52
2022/04/29 04:50:04;;;;;;;81.50;44.25;;;9.40;99.90;;;;;;5017507;28;20068;-52
2022/04/29 04:52:31;;;;;;;80.72;43.65;;;9.40;99.90;;;;;;5017339;28;20055;-52
2022/04/29 04:54:57;;;;;;;90.35;43.13;;;9.50;99.90;;;;;;5015950;28;20025;-52
2022/04/29 04:57:27;;;;;;;80.05;42.90;;;9.50;99.90;;;;;;5015945;28;20168;-52
2022/04/29 04:59:53;;;;;;;76.63;45.20;;;9.50;99.90;;;;;;5015971;28;20499;-52
2022/04/29 05:02:20;;;;;;;86.28;47.05;;;9.70;99.90;;;;;;5015850;28;20025;-52
2022/04/29 05:05:21;;;;;;;77.88;44.72;;;9.70;99.90;;;;;;5016940;28;20078;-52
2022/04/29 05:07:55;;;;;;;91.80;46.50;;;9.80;99.90;;;;;;5016725;28;20034;-52
2022/04/29 05:10:22;;;;;;;80.07;43.05;;;9.90;99.90;;;;;;5017589;28;20037;-53
2022/04/29 05:12:48;;;;;;;85.60;47.65;;;9.80;99.90;;;;;;5013764;28;20058;-52
2022/04/29 05:15:42;;;;;;;82.68;44.83;;;9.90;99.90;;;;;;5002979;28;20069;-52
2022/04/29 05:18:17;;;;;;;84.07;46.97;;;9.80;99.90;;;;;;4999796;28;20089;-54
2022/04/29 05:20:50;;;;;;;86.90;47.65;;;9.80;99.90;;;;;;5011880;28;20038;-53
2022/04/29 05:23:18;;;;;;;86.60;47.92;;;9.80;99.90;;;;;;5005582;28;20021;-53
2022/04/29 05:26:04;;;;;;;88.60;49.17;;;9.80;99.90;;;;;;5010403;28;20376;-53
2022/04/29 05:28:49;;;;;;;88.75;47.78;;;9.80;99.90;;;;;;5016267;28;20049;-53
2022/04/29 05:31:55;;;;;;;98.85;48.75;;;9.80;99.90;;;;;;5031605;28;20105;-53
2022/04/29 05:34:40;;;;;;;96.35;51.13;;;9.90;99.90;;;;;;5017260;28;20399;-53
2022/04/29 05:37:25;;;;;;;103.03;52.08;;;9.90;99.90;;;;;;5014355;28;20395;-53
2022/04/29 05:42:43;;;;;;;99.55;53.45;;;10.00;99.90;;;;;;5004245;28;20029;-53
2022/04/29 05:45:09;;;;;;;109.25;57.75;;;10.00;99.90;;;;;;5005762;28;20515;-53
2022/04/29 05:47:37;;;;;;;121.88;58.53;;;10.00;99.90;;;;;;5009523;28;20038;-53
2022/04/29 05:50:04;;;;;;;115.03;56.88;;;10.10;99.90;;;;;;5012511;28;20041;-53
2022/04/29 05:52:32;;;;;;;105.75;55.60;;;10.20;99.90;;;;;;5011605;28;20030;-53
2022/04/29 05:54:58;;;;;;;100.80;54.67;;;10.30;99.90;;;;;;5007078;28;20022;-53
2022/04/29 05:57:29;;;;;;;103.90;54.08;;;10.30;99.90;;;;;;5006522;28;20030;-53
2022/04/29 05:59:59;;;;;;;113.63;56.65;;;10.30;99.90;;;;;;5006881;28;20060;-53
2022/04/29 06:02:53;;;;;;;107.63;55.00;;;10.40;99.90;;;;;;4989644;28;20035;-53
2022/04/29 06:05:20;;;;;;;106.45;55.33;;;10.50;99.90;;;;;;4991296;28;20577;-53
2022/04/29 06:07:49;;;;;;;101.47;53.05;;;10.60;99.90;;;;;;5000591;28;20081;-53
2022/04/29 06:10:32;;;;;;;98.22;51.78;;;10.70;99.90;;;;;;4997180;28;20087;-53
2022/04/29 06:12:58;;;;;;;95.50;52.38;;;10.80;99.90;;;;;;4998401;28;20043;-53
2022/04/29 06:15:30;;;;;;;103.53;53.22;;;10.90;99.90;;;;;;4994628;28;20124;-53
2022/04/29 06:18:15;;;;;;;103.05;51.20;;;11.00;99.90;;;;;;4995360;28;20451;-53
2022/04/29 06:21:04;;;;;;;91.40;49.17;;;11.10;99.90;;;;;;5002883;28;20034;-53
2022/04/29 06:23:30;;;;;;;86.85;48.33;;;11.10;99.90;;;;;;5002491;28;20057;-53
2022/04/29 06:25:58;;;;;;;86.85;47.78;;;11.20;99.90;;;;;;5004017;28;20113;-53
2022/04/29 06:28:32;;;;;;;102.18;51.78;;;11.30;99.90;;;;;;5012212;28;20050;-56
2022/04/29 06:30:58;;;;;;;103.05;54.72;;;11.50;99.90;;;;;;5013627;28;20118;-53
2022/04/29 06:33:43;;;;;;;108.55;52.92;;;11.60;99.90;;;;;;5004927;28;20045;-53
2022/04/29 06:36:13;;;;;;;106.97;55.92;;;11.70;99.90;;;;;;5001414;28;20425;-53
2022/04/29 06:38:42;;;;;;;95.82;49.92;;;11.70;99.90;;;;;;4998967;28;20033;-53
2022/04/29 06:41:27;;;;;;;101.07;51.95;;;11.80;99.90;;;;;;5014745;28;20495;-53
2022/04/29 06:44:03;;;;;;;106.47;53.60;;;11.90;99.90;;;;;;4994879;28;20036;-53
2022/04/29 06:46:45;;;;;;;116.28;56.03;;;12.10;99.90;;;;;;4999328;28;20076;-53
2022/04/29 06:49:29;;;;;;;121.18;53.10;;;12.40;99.90;;;;;;5004970;28;20091;-53
2022/04/29 06:52:14;;;;;;;122.53;55.63;;;12.50;99.90;;;;;;4996191;28;20045;-53
2022/04/29 06:54:51;;;;;;;117.30;54.47;;;12.60;99.90;;;;;;5011235;28;20034;-55
2022/04/29 06:57:17;;;;;;;127.20;61.05;;;12.70;99.90;;;;;;5008938;28;20026;-53
2022/04/29 06:59:43;;;;;;;130.50;63.60;;;12.80;99.90;;;;;;5004976;28;20014;-53
2022/04/29 07:02:09;;;;;;;97.13;52.80;;;12.90;99.90;;;;;;5008981;28;20024;-53
2022/04/29 07:04:35;;;;;;;106.97;53.08;;;13.10;99.90;;;;;;5013920;28;20049;-53
2022/04/29 07:07:01;;;;;;;97.68;50.72;;;13.30;99.90;;;;;;5011939;28;20449;-53
2022/04/29 07:09:29;;;;;;;91.55;50.33;;;13.60;99.90;;;;;;5003697;28;20037;-53
2022/04/29 07:12:27;;;;;;;95.15;54.78;;;13.80;99.90;;;;;;5004834;28;20113;-53
2022/04/29 07:14:59;;;;;;;119.63;61.58;;;13.90;99.90;;;;;;5012681;28;20134;-53
2022/04/29 07:17:25;;;;;;;121.68;64.38;;;14.20;99.90;;;;;;5013505;28;20038;-53
2022/04/29 07:19:59;;;;;;;138.80;66.40;;;14.60;99.90;;;;;;5013917;28;20033;-53
2022/04/29 07:22:27;;;;;;;169.90;75.00;;;14.60;99.90;;;;;;5015016;28;20053;-53
2022/04/29 07:24:54;;;;;;;183.15;76.22;;;14.80;99.90;;;;;;5013567;28;20033;-53
2022/04/29 07:27:21;;;;;;;210.02;82.03;;;15.00;99.90;;;;;;5013822;28;20042;-53
2022/04/29 07:29:48;;;;;;;220.30;86.28;;;15.50;99.90;;;;;;5013541;28;20045;-53
2022/04/29 07:32:24;;;;;;;225.45;87.90;;;15.50;99.90;;;;;;5013837;28;20042;-53
2022/04/29 07:43:58;;;;;;;262.40;93.18;;;16.10;99.90;;;;;;5013857;28;20029;-53
2022/04/29 07:46:25;;;;;;;267.20;95.28;;;16.40;99.90;;;;;;5013893;28;20240;-53
2022/04/29 07:49:10;;;;;;;253.23;92.97;;;16.60;99.90;;;;;;5008931;28;20107;-53
2022/04/29 07:51:36;;;;;;;247.82;88.70;;;16.50;99.90;;;;;;5021155;28;20073;-53
2022/04/29 07:54:07;;;;;;;239.90;86.55;;;16.60;99.90;;;;;;4996638;28;20045;-53
2022/04/29 07:56:33;;;;;;;275.35;94.07;;;17.20;99.90;;;;;;5004679;28;20046;-53
2022/04/29 07:59:02;;;;;;;286.55;95.07;;;17.40;99.90;;;;;;5005734;28;20038;-54
2022/04/29 08:01:28;;;;;;;293.23;97.07;;;17.80;99.90;;;;;;5021742;28;20030;-53
2022/04/29 08:03:55;;;;;;;305.42;97.80;;;17.70;99.90;;;;;;5009212;28;20097;-53
2022/04/29 08:06:22;;;;;;;310.70;98.20;;;18.00;99.90;;;;;;4997296;28;20030;-53
2022/04/29 08:08:48;;;;;;;318.40;100.82;;;18.00;99.90;;;;;;4995267;28;20117;-53
2022/04/29 08:11:16;;;;;;;332.25;101.45;;;18.00;99.90;;;;;;5012180;28;20460;-53
2022/04/29 08:14:03;;;;;;;319.58;100.95;;;18.00;99.90;;;;;;5007036;28;20035;-54
2022/04/29 08:16:49;;;;;;;309.33;99.80;;;18.20;99.90;;;;;;5000214;28;20048;-53
2022/04/29 08:19:30;;;;;;;;;;;18.80;99.90;;;;;;5017012;28;20033;-54
2022/04/29 08:22:19;;;;;;;287.33;90.13;;;18.60;99.90;;;;;;5019997;28;20375;-53
2022/04/29 08:24:47;;;;;;;240.90;78.15;;;19.30;99.90;;;;;;5016618;28;20025;-53
2022/04/29 08:27:14;;;;;;;291.60;88.88;;;19.30;99.90;;;;;;5016388;28;20026;-54
2022/04/29 08:29:40;;;;;;;286.08;89.35;;;19.40;98.30;;;;;;5016301;28;20133;-54
2022/04/29 08:32:07;;;;;;;268.88;83.32;;;19.50;99.90;;;;;;5016593;28;20061;-54
2022/04/29 08:34:37;;;;;;;240.57;77.13;;;19.60;99.20;;;;;;5016011;28;20034;-54
2022/04/29 08:37:04;;;;;;;224.00;77.93;;;19.90;96.60;;;;;;5016427;28;20028;-53
2022/04/29 08:39:34;;;;;;;254.57;82.65;;;20.10;98.30;;;;;;5013539;28;20379;-54
2022/04/29 08:42:02;;;;;;;249.38;78.93;;;20.10;97.00;;;;;;5015997;28;20038;-54
2022/04/29 08:44:30;;;;;;;208.13;65.05;;;20.00;96.80;;;;;;5010505;28;20029;-53
2022/04/29 08:47:17;;;;;;;181.57;59.28;;;20.10;91.80;;;;;;5024914;28;20040;-53
2022/04/29 08:49:55;;;;;;;184.68;58.83;;;20.00;94.00;;;;;;5010049;28;20753;-54
2022/04/29 08:52:21;;;;;;;171.05;53.30;;;19.50;95.70;;;;;;5010755;28;20030;-53
2022/04/29 09:00:23;;;;;;;157.20;51.42;;;18.80;98.80;;;;;;5008602;28;20062;-53
2022/04/29 09:02:49;;;;;;;131.23;46.03;;;19.20;98.00;;;;;;5017364;28;20128;-53
2022/04/29 09:05:15;;;;;;;120.90;43.83;;;19.70;95.20;;;;;;5018004;28;20376;-53
2022/04/29 09:07:59;;;;;;;123.60;44.80;;;19.90;91.10;;;;;;5015985;28;20061;-53
2022/04/29 09:10:30;;;;;;;128.85;47.50;;;20.40;82.30;;;;;;5011049;28;20077;-54
2022/04/29 09:13:35;;;;;;;122.32;44.20;;;20.80;86.80;;;;;;5000173;28;20484;-53
2022/04/29 09:16:10;;;;;;;117.47;41.50;;;21.30;90.80;;;;;;5011571;28;20038;-53
2022/04/29 09:18:43;;;;;;;114.45;40.78;;;21.50;86.40;;;;;;5010792;28;21204;-53
2022/04/29 09:21:18;;;;;;;97.80;38.30;;;21.80;74.40;;;;;;5005938;28;20493;-54
2022/04/29 09:23:54;;;;;;;70.05;28.38;;;22.60;84.10;;;;;;5011315;28;20128;-54
2022/04/29 09:26:46;;;;;;;64.90;27.35;;;22.90;70.60;;;;;;5005800;28;20092;-54
2022/04/29 09:29:41;;;;;;;50.83;23.02;;;23.40;57.00;;;;;;5004176;28;20125;-53
2022/04/29 09:32:13;;;;;;;16.08;8.75;;;22.50;56.70;;;;;;5011030;28;20087;-53
2022/04/29 09:35:00;;;;;;;40.40;16.73;;;22.00;48.80;;;;;;5007961;28;20048;-53
2022/04/29 09:37:28;;;;;;;12.68;6.20;;;21.70;56.70;;;;;;5010585;28;20063;-53
2022/04/29 09:40:05;;;;;;;6.68;4.30;;;21.90;51.50;;;;;;5015035;28;20096;-53
2022/04/29 09:42:42;;;;;;;6.25;4.10;;;21.90;52.70;;;;;;5013936;28;20073;-54
2022/04/29 09:45:15;;;;;;;6.97;4.38;;;22.20;52.10;;;;;;5012872;28;20105;-53
2022/04/29 09:47:41;;;;;;;7.57;3.83;;;22.70;50.20;;;;;;5015083;28;20084;-53
2022/04/29 09:50:08;;;;;;;8.57;4.43;;;22.90;48.60;;;;;;5015252;28;20030;-54
2022/04/29 09:52:39;;;;;;;5.25;3.50;;;22.90;48.40;;;;;;5015193;28;20423;-53
2022/04/29 09:55:17;;;;;;;13.32;4.45;;;23.20;48.00;;;;;;5015217;28;20038;-53
2022/04/29 09:57:58;;;;;;;7.20;3.92;;;23.60;49.80;;;;;;5009887;28;20499;-53
2022/04/29 10:00:25;;;;;;;10.15;4.20;;;24.00;48.70;;;;;;5002069;28;20049;-54
2022/04/29 10:02:52;;;;;;;17.90;5.30;;;23.80;43.20;;;;;;5007840;28;20034;-53
2022/04/29 10:05:20;;;;;;;5.47;3.03;;;23.90;44.50;;;;;;5006022;28;20080;-53
2022/04/29 10:07:54;;;;;;;13.82;4.32;;;23.80;42.00;;;;;;5013003;28;20030;-53
2022/04/29 10:10:24;;;;;;;5.20;3.03;;;24.10;39.90;;;;;;5014556;28;20073;-53
2022/04/29 10:12:51;;;;;;;12.13;4.18;;;24.00;42.40;;;;;;5010864;28;20370;-53
2022/04/29 10:15:27;;;;;;;8.73;3.90;;;24.50;44.50;;;;;;5007278;28;20052;-54
2022/04/29 10:21:17;;;;;;;6.07;3.63;;;23.30;41.30;;;;;;4996184;28;20060;-54
2022/04/29 10:23:48;;;;;;;8.10;3.45;;;23.20;42.30;;;;;;4995050;28;20415;-54
2022/04/29 10:26:19;;;;;;;27.15;5.97;;;23.10;42.20;;;;;;4996926;28;20077;-52
2022/04/29 10:28:46;;;;;;;7.72;3.58;;;23.00;42.70;;;;;;5002900;28;20058;-52
2022/04/29 10:31:22;;;;;;;16.10;5.63;;;22.40;43.10;;;;;;5004991;28;20030;-52
2022/04/29 10:33:48;;;;;;;9.45;3.55;;;22.10;46.20;;;;;;5005585;28;20448;-52
2022/04/29 10:36:16;;;;;;;21.10;5.72;;;22.60;46.50;;;;;;5009663;28;20057;-52
2022/04/29 10:38:47;;;;;;;4.70;3.05;;;22.90;46.20;;;;;;5005302;28;20066;-52
2022/04/29 10:41:15;;;;;;;7.60;3.90;;;23.00;40.10;;;;;;5020315;28;20087;-52
2022/04/29 10:43:50;;;;;;;11.90;4.03;;;23.60;45.40;;;;;;5012815;28;20061;-52
2022/04/29 10:46:24;;;;;;;14.80;4.00;;;23.50;40.80;;;;;;5011126;28;20022;-52
2022/04/29 10:48:55;;;;;;;14.35;4.95;;;23.20;43.60;;;;;;5009598;28;20040;-52
2022/04/29 10:51:49;;;;;;;6.20;3.70;;;22.80;42.90;;;;;;5010287;28;20038;-52
2022/04/29 10:54:42;;;;;;;15.70;5.05;;;22.30;44.20;;;;;;5008181;28;20053;-52
2022/04/29 10:57:46;;;;;;;6.77;3.30;;;22.80;45.70;;;;;;4989134;28;20109;-52
2022/04/29 11:00:23;;;;;;;40.72;6.68;;;23.40;43.30;;;;;;4989736;28;20037;-52
2022/04/29 11:02:49;;;;;;;8.75;3.58;;;23.70;42.20;;;;;;4988754;28;20110;-52
2022/04/29 11:05:38;;;;;;;10.88;3.50;;;23.90;39.90;;;;;;4993793;28;20117;-53
2022/04/29 11:08:09;;;;;;;5.50;2.75;;;24.60;41.30;;;;;;4990459;28;20214;-52
2022/04/29 11:10:58;;;;;;;14.55;3.95;;;25.10;41.40;;;;;;4987688;28;20658;-53
2022/04/29 11:13:26;;;;;;;5.47;3.05;;;25.10;38.70;;;;;;4985070;28;20715;-53
2022/04/29 11:16:10;;;;;;;10.70;3.83;;;24.50;39.60;;;;;;4989790;28;20037;-53
2022/04/29 11:19:20;;;;;;;8.27;4.28;;;24.60;41.10;;;;;;4985132;28;20141;-52
2022/04/29 11:24:46;;;;;;;13.80;5.15;;;24.50;42.10;;;;;;4972003;28;20030;-52
2022/04/29 11:27:29;;;;;;;11.88;3.75;;;24.50;41.70;;;;;;4989022;28;20034;-52
2022/04/29 11:30:01;;;;;;;12.85;4.93;;;25.10;42.20;;;;;;5019281;28;20046;-52
2022/04/29 11:32:38;;;;;;;12.88;3.92;;;24.80;38.90;;;;;;5003209;28;20042;-53
2022/04/29 11:35:04;;;;;;;9.02;4.25;;;24.20;41.40;;;;;;5006322;28;20064;-53
2022/04/29 11:37:36;;;;;;;7.35;4.30;;;23.80;44.00;;;;;;5005818;28;20041;-53
2022/04/29 11:40:04;;;;;;;7.13;3.78;;;23.50;44.20;;;;;;5005680;28;20022;-53
2022/04/29 11:42:30;;;;;;;7.75;3.88;;;23.20;46.40;;;;;;5002396;28;20029;-53
2022/04/29 11:45:07;;;;;;;14.70;5.35;;;23.40;47.40;;;;;;5002235;28;20026;-53
2022/04/29 11:47:33;;;;;;;8.15;4.35;;;23.10;46.00;;;;;;5019499;28;20030;-53
2022/04/29 11:50:01;;;;;;;19.58;6.20;;;22.90;45.30;;;;;;5004788;28;20389;-53
2022/04/29 11:52:32;;;;;;;13.98;5.93;;;22.80;46.00;;;;;;5003328;28;20053;-53
2022/04/29 11:55:13;;;;;;;6.00;4.47;;;22.30;48.20;;;;;;5013962;28;20022;-53
2022/04/29 11:57:43;;;;;;;16.75;5.05;;;21.90;46.80;;;;;;5010037;28;20411;-53
2022/04/29 12:00:18;;;;;;;8.13;3.88;;;21.80;50.30;;;;;;4986292;28;20358;-53
2022/04/29 12:02:47;;;;;;;9.88;4.68;;;21.70;47.90;;;;;;4935241;28;20717;-53
2022/04/29 12:05:15;;;;;;;7.55;3.72;;;21.60;49.50;;;;;;4984609;28;20480;-53
2022/04/29 12:07:44;;;;;;;7.97;4.07;;;21.40;49.20;;;;;;5009549;28;20037;-53
2022/04/29 12:10:18;;;;;;;6.50;4.10;;;21.20;47.30;;;;;;5000968;28;20038;-52
2022/04/29 12:12:48;;;;;;;7.00;4.28;;;21.00;50.40;;;;;;5000792;28;20030;-53
2022/04/29 12:15:19;;;;;;;10.95;5.50;;;20.90;51.40;;;;;;5003132;28;20061;-52
2022/04/29 12:17:50;;;;;;;19.10;6.47;;;20.70;52.60;;;;;;5010568;28;20045;-52
2022/04/29 12:20:18;;;;;;;17.40;7.18;;;20.70;52.70;;;;;;5001911;28;20086;-52
2022/04/29 12:22:50;;;;;;;11.70;5.30;;;20.60;55.80;;;;;;5005263;28;20022;-52
2022/04/29 12:25:29;;;;;;;17.98;9.20;;;20.50;58.70;;;;;;5010074;28;20025;-52
2022/04/29 12:28:16;;;;;;;25.45;6.03;;;20.50;56.20;;;;;;5003565;28;20034;-53
2022/04/29 12:36:27;;;;;;;13.63;5.75;;;20.60;57.30;;;;;;5004205;28;20038;-53
2022/04/29 12:39:04;;;;;;;19.27;6.47;;;20.50;57.40;;;;;;5006020;28;20034;-53
2022/04/29 12:41:31;;;;;;;15.52;6.47;;;20.90;57.00;;;;;;5005006;28;20041;-53
2022/04/29 12:44:11;;;;;;;25.88;5.10;;;21.30;57.20;;;;;;5007757;28;20471;-52
2022/04/29 12:46:37;;;;;;;8.13;4.65;;;21.40;52.90;;;;;;5004656;28;20471;-53
2022/04/29 12:49:03;;;;;;;8.43;4.60;;;21.50;49.10;;;;;;5006349;28;20035;-52
2022/04/29 12:51:32;;;;;;;4.85;3.60;;;21.40;50.80;;;;;;5008282;28;20040;-52
2022/04/29 12:54:04;;;;;;;6.28;3.78;;;21.40;52.10;;;;;;5017572;28;20021;-53
2022/04/29 12:56:32;;;;;;;10.55;4.03;;;21.60;56.90;;;;;;5012848;28;20041;-53
2022/04/29 12:59:01;;;;;;;11.10;3.97;;;21.70;54.20;;;;;;5004179;28;20030;-53
2022/04/29 13:01:38;;;;;;;10.00;4.90;;;21.60;48.10;;;;;;5004988;28;20029;-53
2022/04/29 13:04:21;;;;;;;8.25;4.22;;;21.30;49.90;;;;;;5000337;28;20030;-53
2022/04/29 13:07:06;;;;;;;27.02;5.60;;;21.20;51.10;;;;;;5010713;28;20072;-54
2022/04/29 13:09:32;;;;;;;18.10;5.22;;;20.90;53.40;;;;;;5008054;28;20103;-53
2022/04/29 13:11:58;;;;;;;26.52;4.88;;;20.90;51.00;;;;;;5004475;28;20113;-52
2022/04/29 13:14:40;;;;;;;27.83;6.60;;;20.90;55.70;;;;;;4999318;28;20384;-52
2022/04/29 13:17:06;;;;;;;19.75;5.55;;;20.90;53.90;;;;;;5010611;28;20030;-53
2022/04/29 13:19:32;;;;;;;10.63;4.20;;;20.80;53.40;;;;;;5007912;28;20073;-52
2022/04/29 13:21:58;;;;;;;10.18;3.38;;;20.70;53.10;;;;;;5016018;28;20029;-53
2022/04/29 13:24:24;;;;;;;24.77;6.03;;;20.50;53.40;;;;;;5008166;28;20823;-52